Athens, IN (46912)

3:11 PM EST on December 08, 2016 (GMT -0500)
4th Street | | Change Station

Elev 781 ft 41.07 °N, 86.20 °W | Updated 4 minutes ago

Light Snow
Light Snow
19.9 °F
Feels Like 7 °F
N
13.0
Wind Variable Wind from West
Gusts 19.0 mph

Today
High -- | Low -- °F
--% Chance of Precip.
Yesterday
High -- | Low -- °F
Precip. -- in
Pressure 30.29 in
Visibility 5.0 miles
Clouds Mostly Cloudy 1000 ft
Mostly Cloudy 2300 ft
Windchill 7 °F
Dew Point 12 °F
Humidity 71%
Rainfall 0.00 in
Snow Depth Not available.
7:57 AM 5:15 PM
Waxing Gibbous, 66% visible
METAR KRCR 081955Z AUTO 28010G20KT 5SM -SN BKN010 BKN023 M05/M08 A3029 RMK AO2
Pressure 30.29 in
Visibility 5.0 miles
Clouds Mostly Cloudy 1000 ft
Mostly Cloudy 2300 ft
Windchill 7 °F
Dew Point 12 °F
Humidity 71%
Rainfall 0.00 in
Snow Depth Not available.
7:57 AM 5:15 PM
Waxing Gibbous, 66% visible
METAR KRCR 081955Z AUTO 28010G20KT 5SM -SN BKN010 BKN023 M05/M08 A3029 RMK AO2

10-Day Weather Forecast

Almanac

Astronomy

Dec. 08, 2016 Rise Set
Actual Time
Civil Twilight
Nautical Twilight
Astronomical Twilight
Moon
Length of Visible Light
Length of Day
Tomorrow will be .
, % of the Moon is Illuminated

Today's Extremes

State Highs State Lows

Community

WunderPhotos

Upload Photos

1,956,277 photos uploaded!

WunderBlog® & News

Nearby

Air Quality

  Air Quality AQ Index Pollutant
Not available.

Snow Depth

Station Depth Elevation

Earthquake Activity

City Distance Mag. Time & Date
Minimum magnitude displayed is 2.5.

Coastal Water Temperatures

Place Temperature

Stations

Nearby Weather Stations

Station Location Temp. Windchill Dew Point Humidity Wind Precip. Elev Updated Type
                   

Watches & Warnings

There are currently no watches in effect.